Time;durP1;ratioP1;P1;durP2;ratioP2;P2;SDS_P1;SDS_P2;PMS_P1;PMS_P2;Temp;Humidity;BMP_temperature;BMP_pressure;BME280_temperature;BME280_humidity;BME280_pressure;Samples;Min_cycle;Max_cycle;Signal;HPM_P1;HPM_P2
2022/12/12 00:01:16;;;;;;;11.63;7.55;;;-3.40;99.90;;;;;;4981792;28;20170;-41
2022/12/12 00:03:41;;;;;;;4.30;3.97;;;-3.40;99.90;;;;;;4981643;28;20045;-36
2022/12/12 00:06:07;;;;;;;10.95;6.43;;;-3.30;99.90;;;;;;4981746;28;20031;-38
2022/12/12 00:08:33;;;;;;;5.25;4.82;;;-3.40;99.90;;;;;;4979208;28;20088;-39
2022/12/12 00:10:58;;;;;;;5.10;4.22;;;-3.30;99.90;;;;;;4976317;28;20046;-37
2022/12/12 00:13:24;;;;;;;7.05;5.15;;;-3.40;99.90;;;;;;4984073;28;20054;-40
2022/12/12 00:15:49;;;;;;;11.13;6.82;;;-3.40;99.90;;;;;;4976872;28;20054;-40
2022/12/12 00:18:15;;;;;;;6.95;5.88;;;-3.30;99.90;;;;;;4976797;28;20054;-36
2022/12/12 00:20:40;;;;;;;12.63;6.13;;;-3.30;99.90;;;;;;4978065;28;20506;-37
2022/12/12 00:23:06;;;;;;;9.30;6.85;;;-3.30;99.90;;;;;;4983071;28;20645;-36
2022/12/12 00:25:32;;;;;;;12.02;7.35;;;-3.30;99.90;;;;;;4979989;28;20029;-40
2022/12/12 00:27:59;;;;;;;7.90;4.97;;;-3.30;99.90;;;;;;4984992;28;20037;-41
2022/12/12 00:30:25;;;;;;;7.00;3.88;;;-3.30;99.90;;;;;;4979500;28;20034;-40
2022/12/12 00:32:50;;;;;;;5.85;5.28;;;-3.30;99.90;;;;;;4980718;28;20038;-42
2022/12/12 00:35:16;;;;;;;4.43;4.07;;;-3.40;99.90;;;;;;4978710;28;20022;-42
2022/12/12 00:37:42;;;;;;;13.05;6.88;;;-3.50;99.90;;;;;;4982254;28;20022;-34
2022/12/12 00:40:09;;;;;;;4.28;3.85;;;-3.50;99.90;;;;;;4983064;28;20076;-39
2022/12/12 00:42:34;;;;;;;9.80;6.50;;;-3.50;99.90;;;;;;4983873;28;20030;-36
2022/12/12 00:45:00;;;;;;;6.57;5.55;;;-3.60;99.90;;;;;;4981093;28;20542;-41
2022/12/12 00:47:26;;;;;;;3.42;3.20;;;-3.60;99.90;;;;;;4983709;28;21273;-41
2022/12/12 00:49:52;;;;;;;12.43;7.53;;;-3.70;99.90;;;;;;4981327;28;20049;-43
2022/12/12 00:52:17;;;;;;;8.48;6.03;;;-3.60;99.90;;;;;;4981121;28;20037;-38
2022/12/12 00:54:43;;;;;;;6.90;4.40;;;-3.70;99.90;;;;;;4980690;28;20488;-39
2022/12/12 00:57:08;;;;;;;6.82;6.03;;;-3.60;99.90;;;;;;4981942;28;20427;-37
2022/12/12 00:59:34;;;;;;;8.20;5.70;;;-3.50;99.90;;;;;;4982681;28;20157;-38
2022/12/12 01:02:00;;;;;;;16.00;7.00;;;-3.60;99.90;;;;;;4983049;28;20109;-42
2022/12/12 01:04:25;;;;;;;10.68;6.88;;;-3.60;99.90;;;;;;4985362;28;20058;-42
2022/12/12 01:06:51;;;;;;;8.63;5.95;;;-3.60;99.90;;;;;;4978874;28;20121;-40
2022/12/12 01:09:16;;;;;;;8.52;5.47;;;-3.60;99.90;;;;;;4983884;28;20583;-40
2022/12/12 01:11:42;;;;;;;9.45;6.32;;;-3.60;99.90;;;;;;4982120;28;20089;-39
2022/12/12 01:14:07;;;;;;;5.10;4.70;;;-3.60;99.90;;;;;;4983719;28;20034;-38
2022/12/12 01:16:33;;;;;;;7.93;5.88;;;-3.60;99.90;;;;;;4981052;28;20471;-41
2022/12/12 01:18:59;;;;;;;4.75;4.40;;;-3.50;99.90;;;;;;4977844;28;20050;-39
2022/12/12 01:21:24;;;;;;;8.95;5.28;;;-3.50;99.90;;;;;;4981278;28;20085;-38
2022/12/12 01:23:50;;;;;;;8.52;5.65;;;-3.60;99.90;;;;;;4983290;28;20030;-39
2022/12/12 01:26:19;;;;;;;9.35;6.57;;;-3.60;99.90;;;;;;4980185;28;20748;-39
2022/12/12 01:28:45;;;;;;;;;;;-3.50;99.90;;;;;;4980927;28;20026;-37
2022/12/12 01:31:12;;;;;;;5.95;4.78;;;-3.50;99.90;;;;;;4981206;28;19941;-41
2022/12/12 01:33:37;;;;;;;6.72;5.90;;;-3.60;99.90;;;;;;4982768;28;20129;-39
2022/12/12 01:36:05;;;;;;;12.00;7.25;;;-3.60;99.90;;;;;;4979580;28;20110;-41
2022/12/12 01:38:33;;;;;;;5.82;4.57;;;-3.60;99.90;;;;;;4980200;28;20036;-40
2022/12/12 01:40:59;;;;;;;12.00;7.50;;;-3.60;99.90;;;;;;4982062;28;20044;-41
2022/12/12 01:43:27;;;;;;;10.57;7.22;;;-3.50;99.90;;;;;;4985146;28;20038;-39
2022/12/12 01:45:56;;;;;;;;;;;-3.50;99.90;;;;;;4983352;28;20036;-37
2022/12/12 01:48:30;;;;;;;6.72;3.88;;;-3.50;99.90;;;;;;4979489;28;19910;-43
2022/12/12 01:50:58;;;;;;;7.78;5.70;;;-3.50;99.90;;;;;;4983652;28;20381;-40
2022/12/12 01:53:26;;;;;;;3.10;2.00;;;-3.40;99.90;;;;;;4981134;28;20038;-41
2022/12/12 01:55:53;;;;;;;5.80;3.97;;;-3.50;99.90;;;;;;4983623;28;20439;-40
2022/12/12 01:58:19;;;;;;;5.13;4.65;;;-3.50;99.90;;;;;;4984223;28;20022;-40
2022/12/12 02:00:45;;;;;;;4.30;3.90;;;-3.60;99.90;;;;;;4984054;28;20026;-41
2022/12/12 02:03:11;;;;;;;6.25;4.32;;;-3.60;99.90;;;;;;4983383;28;20058;-38
2022/12/12 02:05:50;;;;;;;5.97;3.92;;;-3.70;99.90;;;;;;4985118;28;20030;-40
2022/12/12 02:08:18;;;;;;;5.35;5.00;;;-3.80;99.90;;;;;;4979054;28;20061;-38
2022/12/12 02:10:45;;;;;;;13.65;8.13;;;-3.80;99.90;;;;;;4980315;28;20048;-37
2022/12/12 02:13:25;;;;;;;6.53;4.72;;;-3.80;99.90;;;;;;4978177;28;20121;-39
2022/12/12 02:16:12;;;;;;;3.10;2.80;;;-3.70;99.90;;;;;;4981544;28;20030;-39
2022/12/12 02:18:43;;;;;;;5.70;4.45;;;-3.70;99.90;;;;;;4981643;28;20038;-39
2022/12/12 02:21:14;;;;;;;1.67;1.52;;;-3.80;99.90;;;;;;4992776;28;20633;-40
2022/12/12 02:24:10;;;;;;;6.88;4.68;;;-3.80;99.90;;;;;;4979211;28;20070;-40
2022/12/12 02:26:58;;;;;;;4.13;3.78;;;-3.80;99.90;;;;;;4981838;28;20076;-36
2022/12/12 02:29:24;;;;;;;9.55;7.38;;;-3.80;99.90;;;;;;4985584;28;20428;-38
2022/12/12 02:32:23;;;;;;;4.47;3.55;;;-3.80;99.90;;;;;;4985053;28;20085;-40
2022/12/12 02:35:01;;;;;;;;;;;-3.70;99.90;;;;;;4983868;28;20034;-39
2022/12/12 02:37:44;;;;;;;4.18;4.00;;;-3.80;99.90;;;;;;4981450;28;19918;-39
2022/12/12 02:40:45;;;;;;;6.28;5.78;;;-3.80;99.90;;;;;;4981601;28;20109;-40
2022/12/12 02:44:03;;;;;;;2.97;2.85;;;-3.80;99.90;;;;;;4983445;28;20054;-39
2022/12/12 02:46:56;;;;;;;8.18;6.47;;;-3.70;99.90;;;;;;4956435;28;20050;-36
2022/12/12 02:49:27;;;;;;;4.78;4.43;;;-3.80;99.90;;;;;;4990683;28;20041;-39
2022/12/12 02:51:54;;;;;;;10.20;6.35;;;-3.70;99.90;;;;;;4977913;28;20499;-38
2022/12/12 02:54:22;;;;;;;9.80;4.93;;;-3.80;99.90;;;;;;4985066;28;20027;-39
2022/12/12 02:56:51;;;;;;;4.38;3.95;;;-3.80;99.90;;;;;;4984054;28;20026;-39
2022/12/12 02:59:29;;;;;;;7.03;4.60;;;-3.80;99.90;;;;;;4984454;28;20057;-39
2022/12/12 03:02:23;;;;;;;12.63;6.65;;;-3.90;99.90;;;;;;4985592;28;20181;-35
2022/12/12 03:08:16;;;;;;;9.43;5.82;;;-3.90;99.90;;;;;;4978909;28;20057;-37
2022/12/12 03:11:04;;;;;;;12.57;7.05;;;-3.80;99.90;;;;;;4986485;28;20031;-39
2022/12/12 03:13:56;;;;;;;8.23;6.88;;;-3.80;99.90;;;;;;4983323;28;20036;-40
2022/12/12 03:16:40;;;;;;;11.65;7.60;;;-3.70;99.90;;;;;;4983383;28;20089;-40
2022/12/12 03:19:27;;;;;;;8.07;4.97;;;-3.70;99.90;;;;;;4986270;28;20335;-37
2022/12/12 03:21:58;;;;;;;7.32;5.07;;;-3.60;99.90;;;;;;4979841;28;20455;-40
2022/12/12 03:24:30;;;;;;;8.57;5.40;;;-3.60;99.90;;;;;;4977968;28;20038;-39
2022/12/12 03:27:09;;;;;;;5.38;4.78;;;-3.60;99.90;;;;;;4981847;28;20506;-40
2022/12/12 03:29:47;;;;;;;10.77;6.30;;;-3.60;99.90;;;;;;4984022;28;20117;-40
2022/12/12 03:32:21;;;;;;;7.22;3.85;;;-3.60;99.90;;;;;;4982169;28;20085;-40
2022/12/12 03:34:54;;;;;;;7.93;6.78;;;-3.60;99.90;;;;;;4982129;28;20034;-40
2022/12/12 03:37:26;;;;;;;6.28;5.25;;;-3.70;99.90;;;;;;4983728;28;20950;-39
2022/12/12 03:40:00;;;;;;;4.75;4.10;;;-3.70;99.90;;;;;;4983673;28;20109;-39
2022/12/12 03:42:34;;;;;;;3.50;3.30;;;-3.80;99.90;;;;;;4985959;28;20025;-39
2022/12/12 03:45:09;;;;;;;2.05;2.03;;;-3.80;99.90;;;;;;4984962;28;20193;-39
2022/12/12 03:47:42;;;;;;;7.18;4.88;;;-3.80;99.90;;;;;;4981278;28;20505;-38
2022/12/12 03:50:21;;;;;;;3.38;3.08;;;-3.90;99.90;;;;;;4986107;28;20038;-38
2022/12/12 03:53:07;;;;;;;4.82;4.32;;;-3.90;99.90;;;;;;4981574;28;20035;-39
2022/12/12 03:55:42;;;;;;;6.10;4.70;;;-3.80;99.90;;;;;;4985466;28;20066;-39
2022/12/12 03:58:33;;;;;;;4.28;3.95;;;-3.90;99.90;;;;;;4982525;28;20026;-39
2022/12/12 04:01:03;;;;;;;3.03;2.92;;;-3.90;99.90;;;;;;4983648;28;20558;-34
2022/12/12 04:03:53;;;;;;;4.50;4.10;;;-3.90;99.90;;;;;;4981439;28;20081;-38
2022/12/12 04:06:28;;;;;;;2.63;2.53;;;-3.80;99.90;;;;;;4983210;28;20026;-39
2022/12/12 04:15:14;;;;;;;5.15;4.75;;;-4.00;99.90;;;;;;4980914;28;20048;-39
2022/12/12 04:18:02;;;;;;;4.97;3.97;;;-4.10;99.90;;;;;;4980278;28;20177;-38
2022/12/12 04:23:40;;;;;;;5.30;4.50;;;-4.10;99.90;;;;;;4981267;28;20053;-40
2022/12/12 04:26:38;;;;;;;4.13;3.65;;;-4.20;99.90;;;;;;4980290;28;20026;-39
2022/12/12 04:29:27;;;;;;;4.53;3.95;;;-4.30;99.90;;;;;;4980241;28;20497;-38
2022/12/12 04:32:19;;;;;;;5.18;4.10;;;-4.30;99.90;;;;;;4981273;28;20116;-39
2022/12/12 04:34:51;;;;;;;3.50;3.25;;;-4.30;99.90;;;;;;4979121;28;20030;-39
2022/12/12 04:37:26;;;;;;;7.18;5.70;;;-4.30;99.90;;;;;;4981007;28;20523;-39
2022/12/12 04:39:56;;;;;;;5.85;5.28;;;-4.30;99.90;;;;;;4984467;28;20026;-39
2022/12/12 04:42:25;;;;;;;4.75;4.35;;;-4.30;99.90;;;;;;4998269;28;20023;-38
2022/12/12 04:44:54;;;;;;;4.32;4.05;;;-4.30;99.90;;;;;;4985326;28;20085;-39
2022/12/12 04:47:22;;;;;;;8.07;6.18;;;-4.40;99.90;;;;;;4980967;28;20034;-39
2022/12/12 04:49:50;;;;;;;11.75;5.32;;;-4.30;99.90;;;;;;4975858;28;20587;-38
2022/12/12 04:52:19;;;;;;;6.80;4.93;;;-4.30;99.90;;;;;;4980177;28;20030;-39
2022/12/12 04:54:56;;;;;;;8.05;5.57;;;-4.50;99.90;;;;;;4980895;28;20088;-36
2022/12/12 04:57:42;;;;;;;11.02;7.18;;;-4.40;99.90;;;;;;4976309;28;20740;-40
2022/12/12 05:00:09;;;;;;;2.05;1.95;;;-4.40;99.90;;;;;;4983253;28;20491;-39
2022/12/12 05:03:15;;;;;;;2.30;2.20;;;-4.40;99.90;;;;;;4982637;28;20031;-37
2022/12/12 05:05:52;;;;;;;3.22;1.70;;;-4.50;99.90;;;;;;4976323;28;20031;-40
2022/12/12 05:08:31;;;;;;;10.52;6.75;;;-4.50;99.90;;;;;;4943454;28;1108067;-39
2022/12/12 05:11:00;;;;;;;3.03;2.80;;;-4.50;99.90;;;;;;4979175;28;20042;-36
2022/12/12 05:13:35;;;;;;;8.80;4.28;;;-4.40;99.90;;;;;;4983999;28;20030;-38
2022/12/12 05:16:09;;;;;;;4.15;3.95;;;-4.40;99.90;;;;;;4984278;28;20029;-37
2022/12/12 05:18:34;;;;;;;2.80;2.70;;;-4.40;99.90;;;;;;4981299;28;20495;-37
2022/12/12 05:21:00;;;;;;;3.53;2.45;;;-4.40;99.90;;;;;;4983475;28;20031;-40
2022/12/12 05:23:25;;;;;;;2.72;2.53;;;-4.40;99.90;;;;;;4979751;28;20137;-39
2022/12/12 05:25:51;;;;;;;2.72;2.63;;;-4.50;99.90;;;;;;4981846;28;20033;-40
2022/12/12 05:28:16;;;;;;;3.17;2.42;;;-4.50;99.90;;;;;;4980317;28;20064;-40
2022/12/12 05:30:42;;;;;;;6.00;5.43;;;-4.60;99.90;;;;;;4981154;28;20161;-39
2022/12/12 05:33:07;;;;;;;5.60;4.70;;;-4.60;99.90;;;;;;4981671;28;20026;-39
2022/12/12 05:35:33;;;;;;;12.75;6.13;;;-4.50;99.90;;;;;;4984033;28;20034;-39
2022/12/12 05:38:00;;;;;;;7.80;4.25;;;-4.50;99.90;;;;;;4982686;28;20058;-37
2022/12/12 05:40:26;;;;;;;7.38;6.18;;;-4.50;99.90;;;;;;4977087;28;20026;-38
2022/12/12 05:42:52;;;;;;;8.13;5.68;;;-4.60;99.90;;;;;;4984684;28;20030;-39
2022/12/12 05:45:17;;;;;;;6.75;3.83;;;-4.60;99.90;;;;;;4983531;28;20038;-39
2022/12/12 05:47:43;;;;;;;2.15;2.08;;;-4.50;99.90;;;;;;4982553;28;20096;-40
2022/12/12 05:50:09;;;;;;;3.85;3.55;;;-4.60;99.90;;;;;;4978630;28;20472;-39
2022/12/12 05:52:35;;;;;;;9.45;3.80;;;-4.60;99.90;;;;;;4982895;28;20045;-39
2022/12/12 05:55:01;;;;;;;8.43;6.22;;;-4.60;99.90;;;;;;4984046;28;20035;-41
2022/12/12 05:57:26;;;;;;;10.50;8.27;;;-4.50;99.90;;;;;;4983119;28;20068;-38
2022/12/12 05:59:52;;;;;;;4.05;3.35;;;-4.50;99.90;;;;;;4981560;28;20034;-37
2022/12/12 06:02:18;;;;;;;2.33;2.28;;;-4.50;99.90;;;;;;4975451;28;20038;-37
2022/12/12 06:04:44;;;;;;;14.35;7.38;;;-4.60;99.90;;;;;;4981184;28;20117;-37
2022/12/12 06:07:09;;;;;;;6.95;4.65;;;-4.60;99.90;;;;;;4980405;28;20554;-35
2022/12/12 06:09:35;;;;;;;1.85;1.77;;;-4.60;99.90;;;;;;4982222;28;20034;-37
2022/12/12 06:12:01;;;;;;;5.13;2.70;;;-4.60;99.90;;;;;;4980028;28;20035;-39
2022/12/12 06:14:26;;;;;;;5.07;4.60;;;-4.60;99.90;;;;;;4980683;28;20039;-37
2022/12/12 06:16:52;;;;;;;13.18;8.25;;;-4.70;99.90;;;;;;4979481;28;20054;-37
2022/12/12 06:19:19;;;;;;;10.18;6.40;;;-4.60;99.90;;;;;;4982007;28;20058;-34
2022/12/12 06:21:45;;;;;;;7.68;5.00;;;-4.50;99.90;;;;;;4982263;28;20027;-39
2022/12/12 06:24:11;;;;;;;4.55;3.95;;;-4.50;99.90;;;;;;4979005;28;20031;-39
2022/12/12 06:26:36;;;;;;;6.65;1.42;;;-4.60;99.90;;;;;;4977412;28;20069;-39
2022/12/12 06:29:02;;;;;;;6.03;4.45;;;-4.70;99.90;;;;;;4971131;28;20038;-36
2022/12/12 06:31:29;;;;;;;6.55;3.15;;;-4.60;99.90;;;;;;4966798;28;20408;-37
2022/12/12 06:33:54;;;;;;;10.82;7.18;;;-4.70;99.90;;;;;;4968082;28;20517;-37
2022/12/12 06:36:23;;;;;;;4.50;2.05;;;-4.60;99.90;;;;;;4969806;28;20031;-35
2022/12/12 06:38:55;;;;;;;12.15;5.65;;;-4.60;99.90;;;;;;4963895;28;20625;-36
2022/12/12 06:41:23;;;;;;;3.17;2.97;;;-4.50;99.90;;;;;;4963849;28;20471;-37
2022/12/12 06:43:49;;;;;;;7.82;4.05;;;-4.50;99.90;;;;;;4967806;28;20096;-35
2022/12/12 06:46:18;;;;;;;3.33;3.15;;;-4.50;99.90;;;;;;4972126;28;20041;-39
2022/12/12 06:48:44;;;;;;;3.88;3.28;;;-4.50;99.90;;;;;;4979910;28;20034;-37
2022/12/12 06:51:13;;;;;;;10.05;5.75;;;-4.50;99.90;;;;;;4971571;28;20026;-37
2022/12/12 06:53:39;;;;;;;2.08;1.73;;;-4.50;99.90;;;;;;4968110;28;20473;-38
2022/12/12 06:56:06;;;;;;;4.03;2.33;;;-4.60;99.90;;;;;;4977357;28;20121;-39
2022/12/12 06:58:32;;;;;;;5.53;4.50;;;-4.50;99.90;;;;;;4981361;28;20050;-37
2022/12/12 07:00:58;;;;;;;2.53;2.33;;;-4.60;99.90;;;;;;4981888;28;20727;-36
2022/12/12 07:03:23;;;;;;;2.70;2.58;;;-4.70;99.90;;;;;;4983650;28;20142;-38
2022/12/12 07:05:49;;;;;;;4.72;4.43;;;-4.70;99.90;;;;;;4982262;28;20037;-38
2022/12/12 07:08:15;;;;;;;4.05;3.80;;;-4.80;99.90;;;;;;4981507;28;20449;-39
2022/12/12 07:10:41;;;;;;;3.00;2.22;;;-4.80;99.90;;;;;;4981402;28;20030;-39
2022/12/12 07:13:07;;;;;;;3.85;2.15;;;-4.80;99.90;;;;;;4986237;28;20051;-38
2022/12/12 07:15:32;;;;;;;3.25;3.05;;;-4.90;99.90;;;;;;4986616;28;20092;-36
2022/12/12 07:17:58;;;;;;;4.88;4.28;;;-4.80;99.90;;;;;;4988242;28;20044;-38
2022/12/12 07:20:24;;;;;;;10.35;5.63;;;-4.80;99.90;;;;;;4979900;28;20054;-39
2022/12/12 07:22:49;;;;;;;10.18;5.35;;;-4.80;99.90;;;;;;4987474;28;20056;-38
2022/12/12 07:25:15;;;;;;;3.10;2.88;;;-4.70;99.90;;;;;;4988789;28;20026;-38
2022/12/12 07:27:41;;;;;;;5.93;5.50;;;-4.80;99.90;;;;;;4989131;28;20058;-38
2022/12/12 07:30:07;;;;;;;8.13;6.85;;;-4.80;99.90;;;;;;4986261;28;20507;-38
2022/12/12 07:32:33;;;;;;;8.88;4.65;;;-4.80;99.90;;;;;;4985857;28;20049;-33
2022/12/12 07:34:59;;;;;;;5.18;4.65;;;-4.70;99.90;;;;;;4985965;28;20039;-38
2022/12/12 07:37:25;;;;;;;2.10;1.83;;;-4.80;99.90;;;;;;4985781;28;20446;-39
2022/12/12 07:39:51;;;;;;;8.70;5.70;;;-5.00;99.90;;;;;;4984251;28;20026;-37
2022/12/12 07:42:16;;;;;;;8.63;5.75;;;-5.10;99.90;;;;;;4988476;28;20557;-38
2022/12/12 07:44:42;;;;;;;8.88;7.68;;;-5.00;99.90;;;;;;4988847;28;20034;-37
2022/12/12 07:47:10;;;;;;;9.73;6.60;;;-5.00;99.90;;;;;;4984750;28;20761;-36
2022/12/12 07:49:36;;;;;;;12.77;11.50;;;-4.90;99.90;;;;;;4987940;28;20615;-39
2022/12/12 07:52:02;;;;;;;6.18;5.45;;;-4.80;99.90;;;;;;4985741;28;20036;-39
2022/12/12 07:54:28;;;;;;;9.02;6.53;;;-4.80;99.90;;;;;;4989121;28;20122;-38
2022/12/12 07:56:53;;;;;;;9.15;7.25;;;-4.70;99.90;;;;;;4987135;28;20104;-39
2022/12/12 07:59:19;;;;;;;9.18;6.53;;;-4.70;99.90;;;;;;4983458;28;20019;-40
2022/12/12 08:01:45;;;;;;;8.13;5.05;;;-4.60;99.90;;;;;;4984971;28;20044;-39
2022/12/12 08:04:11;;;;;;;7.30;6.30;;;-4.60;99.90;;;;;;4984915;28;20113;-42
2022/12/12 08:06:36;;;;;;;4.82;4.43;;;-4.50;99.90;;;;;;5002494;28;20050;-39
2022/12/12 08:09:03;;;;;;;6.10;5.55;;;-4.60;99.90;;;;;;4987235;28;20030;-37
2022/12/12 08:11:29;;;;;;;12.88;6.07;;;-4.50;99.90;;;;;;4986406;28;20030;-39
2022/12/12 08:13:55;;;;;;;12.77;6.80;;;-4.50;99.90;;;;;;4986708;28;20594;-39
2022/12/12 08:16:28;;;;;;;12.32;5.70;;;-4.50;99.90;;;;;;4985021;28;20023;-39
2022/12/12 08:18:58;;;;;;;2.55;2.47;;;-4.50;99.90;;;;;;4997379;28;20023;-40
2022/12/12 08:21:26;;;;;;;6.60;5.55;;;-4.60;99.90;;;;;;4984067;28;20445;-42
2022/12/12 08:23:55;;;;;;;5.35;4.32;;;-4.70;99.90;;;;;;4982312;28;20153;-37
2022/12/12 08:26:22;;;;;;;3.08;2.85;;;-4.70;99.90;;;;;;4985285;28;20030;-39
2022/12/12 08:28:51;;;;;;;4.63;4.35;;;-4.70;99.90;;;;;;4977436;28;20035;-34
2022/12/12 08:31:19;;;;;;;5.32;3.92;;;-4.70;99.90;;;;;;4985084;28;20030;-38
2022/12/12 08:33:45;;;;;;;6.20;5.45;;;-4.60;99.90;;;;;;4996978;28;20062;-40
2022/12/12 08:36:17;;;;;;;9.00;6.13;;;-4.60;99.90;;;;;;4996809;28;20524;-39
2022/12/12 08:38:43;;;;;;;9.40;6.28;;;-4.60;99.90;;;;;;4987246;28;20112;-44
2022/12/12 08:41:22;;;;;;;3.50;3.30;;;-4.60;99.90;;;;;;4985917;28;20038;-38
2022/12/12 08:43:51;;;;;;;6.15;5.65;;;-4.60;99.90;;;;;;4980823;28;20058;-37
2022/12/12 08:46:19;;;;;;;4.00;3.42;;;-4.60;99.90;;;;;;4984686;28;20045;-39
2022/12/12 08:48:47;;;;;;;4.30;2.95;;;-4.50;99.90;;;;;;4986517;28;20026;-36
2022/12/12 08:51:14;;;;;;;5.07;4.50;;;-4.50;99.90;;;;;;4986908;28;20030;-37
2022/12/12 08:53:46;;;;;;;7.75;5.20;;;-4.50;99.90;;;;;;4986577;28;20022;-39
2022/12/12 08:56:13;;;;;;;3.67;3.45;;;-4.50;99.90;;;;;;4997769;28;20106;-40
2022/12/12 08:58:38;;;;;;;6.07;5.47;;;-4.50;99.90;;;;;;4995356;28;20030;-38
2022/12/12 09:01:10;;;;;;;6.03;4.70;;;-4.40;99.90;;;;;;4984609;28;20088;-38
2022/12/12 09:03:36;;;;;;;6.88;3.97;;;-4.50;99.90;;;;;;4988770;28;20041;-36
2022/12/12 09:06:03;;;;;;;4.28;3.20;;;-4.40;99.90;;;;;;4983621;28;20049;-39
2022/12/12 09:08:29;;;;;;;2.83;2.72;;;-4.30;99.90;;;;;;4982102;28;20159;-38
2022/12/12 09:10:54;;;;;;;10.85;6.13;;;-4.30;99.90;;;;;;4988046;28;20119;-38
2022/12/12 09:13:20;;;;;;;6.25;2.60;;;-4.20;99.90;;;;;;4987328;28;20030;-38
2022/12/12 09:15:50;;;;;;;3.58;3.25;;;-4.20;99.90;;;;;;4986950;28;20042;-36
2022/12/12 09:18:16;;;;;;;5.93;4.32;;;-4.20;99.90;;;;;;4997679;28;20080;-39
2022/12/12 09:20:42;;;;;;;3.72;2.97;;;-4.20;99.90;;;;;;4985355;28;20022;-38
2022/12/12 09:23:07;;;;;;;3.60;3.30;;;-4.10;99.90;;;;;;4985353;28;20041;-35
2022/12/12 09:25:34;;;;;;;5.75;4.63;;;-4.10;99.90;;;;;;4985464;28;20030;-37
2022/12/12 09:27:59;;;;;;;8.70;4.97;;;-4.10;99.90;;;;;;4986124;28;20395;-37
2022/12/12 09:30:25;;;;;;;3.05;2.78;;;-4.00;99.90;;;;;;4983405;28;20034;-38
2022/12/12 09:32:50;;;;;;;7.00;5.18;;;-4.00;99.90;;;;;;4986166;28;20046;-39
2022/12/12 09:35:16;;;;;;;3.25;3.05;;;-4.00;99.90;;;;;;4986576;28;20134;-39
2022/12/12 09:37:42;;;;;;;6.40;4.60;;;-3.90;99.90;;;;;;4984384;28;20045;-39
2022/12/12 09:40:15;;;;;;;5.28;4.88;;;-3.90;99.90;;;;;;4986800;28;20035;-39
2022/12/12 09:42:48;;;;;;;3.75;3.22;;;-3.80;99.90;;;;;;4985778;28;20069;-38
2022/12/12 09:45:14;;;;;;;3.88;3.65;;;-3.80;99.90;;;;;;4995212;28;20515;-39
2022/12/12 09:47:49;;;;;;;4.50;4.10;;;-3.80;99.90;;;;;;4984811;28;20018;-38
2022/12/12 09:50:28;;;;;;;2.72;2.20;;;-3.70;99.90;;;;;;4983002;28;20050;-38
2022/12/12 09:52:57;;;;;;;4.20;3.75;;;-3.70;99.90;;;;;;4984694;28;20038;-37
2022/12/12 09:55:40;;;;;;;5.80;5.25;;;-3.70;99.90;;;;;;4987159;28;20118;-39
2022/12/12 09:58:18;;;;;;;8.00;4.75;;;-3.60;99.90;;;;;;4985207;28;20029;-38
2022/12/12 10:00:55;;;;;;;6.03;3.85;;;-3.60;99.90;;;;;;4986581;28;20054;-36
2022/12/12 10:04:03;;;;;;;9.10;4.72;;;-3.50;99.90;;;;;;4982031;28;20049;-38
2022/12/12 10:06:45;;;;;;;6.68;5.15;;;-3.50;99.90;;;;;;4966180;28;20126;-36
2022/12/12 10:09:34;;;;;;;7.30;4.95;;;-3.50;99.90;;;;;;4959648;28;20038;-39
2022/12/12 10:12:00;;;;;;;;;;;-3.40;99.90;;;;;;4985039;28;20039;-38
2022/12/12 10:14:30;;;;;;;4.68;4.32;;;-3.30;99.90;;;;;;4985392;28;20355;-38
2022/12/12 10:16:58;;;;;;;3.17;3.08;;;-3.20;99.90;;;;;;4984285;28;20030;-38
2022/12/12 10:19:28;;;;;;;8.10;5.57;;;-3.20;99.90;;;;;;4985366;28;20046;-39
2022/12/12 10:21:57;;;;;;;4.80;4.15;;;-3.10;99.90;;;;;;4984980;28;20022;-39
2022/12/12 10:24:49;;;;;;;4.03;3.00;;;-3.00;99.90;;;;;;4985050;28;20042;-39
2022/12/12 10:27:14;;;;;;;2.20;2.13;;;-3.00;99.90;;;;;;4984070;28;20046;-38
2022/12/12 10:29:47;;;;;;;9.20;5.00;;;-2.90;99.90;;;;;;4985758;28;20421;-37
2022/12/12 10:32:27;;;;;;;3.08;2.97;;;-2.90;99.90;;;;;;4985360;28;20411;-38
2022/12/12 10:34:59;;;;;;;6.03;5.45;;;-2.80;99.90;;;;;;4984783;28;20043;-39
2022/12/12 10:37:59;;;;;;;10.60;5.22;;;-2.80;99.90;;;;;;4984425;28;20100;-40
2022/12/12 10:40:40;;;;;;;3.33;3.03;;;-2.80;99.90;;;;;;4982937;28;20030;-38
2022/12/12 10:43:13;;;;;;;5.80;3.90;;;-2.70;99.90;;;;;;4984346;28;20034;-39
2022/12/12 10:46:01;;;;;;;3.90;2.95;;;-2.60;99.90;;;;;;4983525;28;20031;-36
2022/12/12 10:48:31;;;;;;;4.10;3.58;;;-2.60;99.90;;;;;;4996279;28;20034;-38
2022/12/12 10:51:02;;;;;;;4.68;4.47;;;-2.50;99.90;;;;;;4986002;28;20064;-38
2022/12/12 10:53:30;;;;;;;2.58;2.25;;;-2.50;99.90;;;;;;4987477;28;20039;-37
2022/12/12 10:56:18;;;;;;;1.67;1.60;;;-2.40;99.90;;;;;;5000799;28;20034;-37
2022/12/12 10:58:55;;;;;;;8.85;4.45;;;-2.40;99.90;;;;;;4996828;28;20049;-38
2022/12/12 11:01:26;;;;;;;6.68;5.57;;;-2.40;99.90;;;;;;4984927;28;20527;-37
2022/12/12 11:03:54;;;;;;;4.32;3.92;;;-2.40;99.90;;;;;;4989187;28;20113;-37
2022/12/12 11:06:30;;;;;;;2.03;2.00;;;-2.30;99.90;;;;;;5000449;28;20602;-39
2022/12/12 11:09:19;;;;;;;5.15;3.85;;;-2.30;99.90;;;;;;4995910;28;20084;-37
2022/12/12 11:12:11;;;;;;;1.92;1.83;;;-2.20;99.90;;;;;;4989394;28;20034;-38
2022/12/12 11:14:41;;;;;;;7.70;4.95;;;-2.20;99.90;;;;;;5002977;28;20725;-38
2022/12/12 11:17:26;;;;;;;7.43;5.38;;;-2.20;99.90;;;;;;4983725;28;20027;-39
2022/12/12 11:19:55;;;;;;;10.27;7.20;;;-2.20;99.90;;;;;;4988551;28;20102;-36
2022/12/12 11:22:25;;;;;;;5.05;4.55;;;-2.10;99.90;;;;;;4998855;28;20110;-37
2022/12/12 11:24:52;;;;;;;6.82;4.90;;;-2.10;99.90;;;;;;4989522;28;20395;-34
2022/12/12 11:27:37;;;;;;;9.75;5.43;;;-2.10;99.90;;;;;;4982118;28;20049;-38
2022/12/12 11:30:27;;;;;;;5.57;4.22;;;-2.10;99.90;;;;;;4983214;28;20026;-39
2022/12/12 11:32:55;;;;;;;4.30;3.88;;;-2.00;99.90;;;;;;4986136;28;20047;-36
2022/12/12 11:35:37;;;;;;;11.63;5.68;;;-2.00;99.90;;;;;;4992318;28;20512;-37
2022/12/12 11:38:07;;;;;;;4.15;3.22;;;-2.00;99.90;;;;;;4987788;28;20157;-39
2022/12/12 11:40:37;;;;;;;4.20;3.63;;;-1.90;99.90;;;;;;4995926;28;20027;-38
2022/12/12 11:43:26;;;;;;;11.20;5.43;;;-1.90;99.90;;;;;;4988946;28;20460;-38
2022/12/12 11:46:18;;;;;;;7.32;3.90;;;-1.90;99.90;;;;;;4986946;28;20104;-38
2022/12/12 11:48:52;;;;;;;3.83;3.53;;;-1.90;99.90;;;;;;4974665;28;20065;-37
2022/12/12 11:51:35;;;;;;;2.30;2.10;;;-1.90;99.90;;;;;;4987996;28;20038;-38
2022/12/12 11:54:33;;;;;;;8.93;5.18;;;-1.80;99.90;;;;;;4986343;28;20026;-39
2022/12/12 11:57:27;;;;;;;12.90;7.55;;;-1.80;99.90;;;;;;4981292;28;20045;-37
2022/12/12 12:00:14;;;;;;;7.97;4.75;;;-1.80;99.90;;;;;;4986757;28;20044;-38
2022/12/12 12:02:55;;;;;;;8.65;4.50;;;-1.80;99.90;;;;;;4998681;28;20179;-37
2022/12/12 12:05:47;;;;;;;6.70;4.80;;;-1.80;99.90;;;;;;4986998;28;20091;-39
2022/12/12 12:08:42;;;;;;;3.65;3.35;;;-1.80;99.90;;;;;;4987097;28;20054;-38
2022/12/12 12:12:05;;;;;;;8.35;4.57;;;-1.80;99.90;;;;;;4980546;28;20051;-39
2022/12/12 12:14:50;;;;;;;6.85;3.85;;;-1.80;99.90;;;;;;4979244;28;20048;-39
2022/12/12 12:17:37;;;;;;;7.97;4.15;;;-1.80;99.90;;;;;;4980296;28;20057;-39
2022/12/12 12:20:11;;;;;;;5.20;4.72;;;-1.80;99.90;;;;;;4989369;28;20046;-39
2022/12/12 12:23:01;;;;;;;6.28;5.45;;;-1.80;99.90;;;;;;4985399;28;20034;-35
2022/12/12 12:25:55;;;;;;;7.97;3.30;;;-1.80;99.90;;;;;;4985179;28;20044;-39
2022/12/12 12:28:39;;;;;;;6.63;4.80;;;-1.80;99.90;;;;;;4986750;28;20048;-40
2022/12/12 12:31:27;;;;;;;8.27;5.22;;;-1.70;99.90;;;;;;4985425;28;20128;-39
2022/12/12 12:34:02;;;;;;;;;;;-1.70;99.90;;;;;;4985610;28;20037;-39
2022/12/12 12:36:39;;;;;;;6.00;5.25;;;-1.70;99.90;;;;;;4983922;28;20383;-37
2022/12/12 12:39:24;;;;;;;5.13;3.70;;;-1.70;99.90;;;;;;4986242;28;20019;-37
2022/12/12 12:41:58;;;;;;;5.55;4.38;;;-1.70;99.90;;;;;;4985427;28;20037;-39
2022/12/12 12:44:30;;;;;;;1.48;1.48;;;-1.70;99.90;;;;;;4987152;28;20137;-39
2022/12/12 12:47:17;;;;;;;6.53;4.50;;;-1.60;99.90;;;;;;4996577;28;20039;-38
2022/12/12 12:50:22;;;;;;;5.28;3.63;;;-1.50;99.90;;;;;;4981486;28;20085;-39
2022/12/12 12:53:00;;;;;;;4.10;2.83;;;-1.50;99.90;;;;;;4984657;28;20050;-38
2022/12/12 12:55:42;;;;;;;2.00;2.00;;;-1.50;99.90;;;;;;4984028;28;20065;-39
2022/12/12 12:58:21;;;;;;;3.70;3.03;;;-1.40;99.90;;;;;;4984004;28;20070;-40
2022/12/12 13:00:58;;;;;;;8.00;5.40;;;-1.40;99.90;;;;;;4982114;28;20030;-38
2022/12/12 13:03:28;;;;;;;8.05;5.88;;;-1.30;99.90;;;;;;4983269;28;20160;-38
2022/12/12 13:06:00;;;;;;;5.25;3.78;;;-1.40;99.90;;;;;;4984502;28;20026;-38
2022/12/12 13:08:43;;;;;;;3.40;3.13;;;-1.40;99.90;;;;;;4982418;28;20377;-38
2022/12/12 13:11:32;;;;;;;6.65;3.58;;;-1.40;99.80;;;;;;4979528;28;20031;-36
2022/12/12 13:14:01;;;;;;;;;;;-1.30;99.90;;;;;;4994195;28;20436;-37
2022/12/12 13:16:31;;;;;;;11.93;4.90;;;-1.30;99.90;;;;;;4982385;28;19917;-38
2022/12/12 13:19:10;;;;;;;5.55;4.00;;;-1.30;99.90;;;;;;4984556;28;20030;-38
2022/12/12 13:21:57;;;;;;;4.22;3.83;;;-1.20;99.90;;;;;;4985251;28;20038;-39
2022/12/12 13:24:33;;;;;;;9.27;5.13;;;-1.10;99.90;;;;;;4982194;28;20035;-38
2022/12/12 13:27:14;;;;;;;7.50;4.93;;;-0.90;99.90;;;;;;4986096;28;20121;-39
2022/12/12 13:30:00;;;;;;;5.65;3.83;;;-1.00;99.90;;;;;;4983235;28;20037;-38